Terminal Aerodrome Forecast
Issued by NWS

Home | Current Version | Previous Version | Text Only | Print | Product List | Glossary On
Versions: 1 2 3 4 5 6 7 8 9 10 11 12 13 14 15 16 17 18 19 20
000
FTUS44 KOUN 270520
TAFLAW
TAF
KLAW 270520Z 2706/2806 03014KT P6SM OVC100
     FM271500 06010KT 2SM -SN OVC020
     FM272200 08008KT P6SM OVC020=

USA.gov is the U.S. government's official web portal to all federal, state and local government web resources and services.